South Collingham, United Kingdom
Current Conditions -  °F | °C
As of 12:00 PM on Friday 28 Nov 2014 (Local Time) from EGXW Reporting Station
Drizzle Drizzle  
Wind Chill: 10°   Ceiling: 400
Heat Index: 10°   Visibility: 1.8mi
Dew Point: 10°   Wind: 12mph
Humidity: 100%   Direction: 100°E
Pressure: 29.68"   Gusts: NA
Location:  53.13°N, 0.77°W
Report Text: EGXW 281200Z 10010KT 3000 -DZ BKN004 10/10 Q1005 YLO2 TEMPO 2000 BKN002 AMB
Loading
Personal Weather Stations






























Interactive Weather Map New forecast layout! Learn more

10-Day Weather Forecast

Advertisements
Track Severe Weather on mobile